createdAt,value
2018-04-12T00:01:57.178Z,11.21
2018-04-12T00:04:25.515Z,11.19
2018-04-12T00:06:53.892Z,11.17
2018-04-12T00:09:22.236Z,11.15
2018-04-12T00:11:50.601Z,11.10
2018-04-12T00:14:18.945Z,11.09
2018-04-12T00:16:47.309Z,11.05
2018-04-12T00:19:15.647Z,11.10
2018-04-12T00:21:44.009Z,11.09
2018-04-12T00:24:12.348Z,11.13
2018-04-12T00:26:40.716Z,11.13
2018-04-12T00:29:09.049Z,11.12
2018-04-12T00:31:37.409Z,11.17
2018-04-12T00:34:05.753Z,11.22
2018-04-12T00:36:34.117Z,11.20
2018-04-12T00:39:02.461Z,11.23
2018-04-12T00:41:30.833Z,11.27
2018-04-12T00:43:59.178Z,11.31
2018-04-12T00:46:27.536Z,11.34
2018-04-12T00:48:55.881Z,11.38
2018-04-12T00:51:24.236Z,11.37
2018-04-12T00:54:01.112Z,11.36
2018-04-12T00:56:29.477Z,11.31
2018-04-12T00:58:57.821Z,11.28
2018-04-12T01:01:26.190Z,11.27
2018-04-12T01:03:54.528Z,11.31
2018-04-12T01:06:22.893Z,11.27
2018-04-12T01:08:51.236Z,11.26
2018-04-12T01:11:19.613Z,11.27
2018-04-12T01:13:47.957Z,11.28
2018-04-12T01:16:16.316Z,11.26
2018-04-12T01:18:44.660Z,11.25
2018-04-12T01:21:13.029Z,11.26
2018-04-12T01:23:41.369Z,11.27
2018-04-12T01:26:09.736Z,11.25
2018-04-12T01:28:38.086Z,11.32
2018-04-12T01:31:06.448Z,11.36
2018-04-12T01:33:34.785Z,11.34
2018-04-12T01:36:03.152Z,11.37
2018-04-12T01:38:31.497Z,11.35
2018-04-12T01:40:59.846Z,11.25
2018-04-12T01:43:28.217Z,11.25
2018-04-12T01:45:56.556Z,11.25
2018-04-12T01:48:24.916Z,11.28
2018-04-12T01:50:53.272Z,11.28
2018-04-12T01:53:21.640Z,11.30
2018-04-12T01:55:49.976Z,11.30
2018-04-12T01:58:18.345Z,11.32
2018-04-12T02:00:46.689Z,11.36
2018-04-12T02:03:15.060Z,11.36
2018-04-12T02:05:43.405Z,11.37
2018-04-12T02:08:11.761Z,11.36
2018-04-12T02:10:40.101Z,11.37
2018-04-12T02:13:08.460Z,11.36
2018-04-12T02:15:36.793Z,11.34
2018-04-12T02:18:05.148Z,11.32
2018-04-12T02:20:33.476Z,11.34
2018-04-12T02:23:01.836Z,11.38
2018-04-12T02:25:30.176Z,11.34
2018-04-12T02:27:58.538Z,11.27
2018-04-12T02:30:26.872Z,11.10
2018-04-12T02:32:55.229Z,11.23
2018-04-12T02:35:23.566Z,10.98
2018-04-12T02:37:51.916Z,10.95
2018-04-12T02:40:20.256Z,10.87
2018-04-12T02:42:48.613Z,10.96
2018-04-12T02:45:16.941Z,10.91
2018-04-12T02:47:46.169Z,10.88
2018-04-12T02:50:14.507Z,10.86
2018-04-12T02:52:42.874Z,10.86
2018-04-12T02:55:11.223Z,10.82
2018-04-12T02:57:39.583Z,10.82
2018-04-12T03:00:07.909Z,10.77
2018-04-12T03:02:36.264Z,10.72
2018-04-12T03:05:04.594Z,10.66
2018-04-12T03:07:32.946Z,10.69
2018-04-12T03:10:01.293Z,10.68
2018-04-12T03:12:29.625Z,10.67
2018-04-12T03:14:57.975Z,10.61
2018-04-12T03:17:26.303Z,10.63
2018-04-12T03:19:54.649Z,10.64
2018-04-12T03:22:22.980Z,10.69
2018-04-12T03:24:51.328Z,10.69
2018-04-12T03:27:19.653Z,10.66
2018-04-12T03:29:48.028Z,10.68
2018-04-12T03:32:16.337Z,10.68
2018-04-12T03:34:44.681Z,10.68
2018-04-12T03:37:13.012Z,10.68
2018-04-12T03:39:41.365Z,10.62
2018-04-12T03:42:09.738Z,10.62
2018-04-12T03:44:38.065Z,10.65
2018-04-12T03:47:06.401Z,10.62
2018-04-12T03:49:34.810Z,10.71
2018-04-12T03:52:03.080Z,10.67
2018-04-12T03:54:31.433Z,10.64
2018-04-12T03:56:59.762Z,10.55
2018-04-12T03:59:28.110Z,10.47
2018-04-12T04:01:56.436Z,10.45
2018-04-12T04:04:24.789Z,10.39
2018-04-12T04:06:53.119Z,10.36
2018-04-12T04:09:21.469Z,10.26
2018-04-12T04:11:49.798Z,10.22
2018-04-12T04:14:29.922Z,10.14
2018-04-12T04:17:10.160Z,10.06
2018-04-12T04:19:50.257Z,10.05
2018-04-12T04:22:18.596Z,10.05
2018-04-12T04:24:46.954Z,10.09
2018-04-12T04:27:15.282Z,10.13
2018-04-12T04:29:43.626Z,10.14
2018-04-12T04:32:11.957Z,10.10
2018-04-12T04:34:40.324Z,10.12
2018-04-12T04:37:08.665Z,10.01
2018-04-12T04:39:37.333Z,10.03
2018-04-12T04:42:05.665Z,9.99
2018-04-12T04:44:34.008Z,9.98
2018-04-12T04:47:02.337Z,9.94
2018-04-12T04:49:30.750Z,9.98
2018-04-12T04:51:59.084Z,10.03
2018-04-12T04:54:27.433Z,10.05
2018-04-12T04:56:55.776Z,10.02
2018-04-12T04:59:24.121Z,9.92
2018-04-12T05:01:52.465Z,9.93
2018-04-12T05:04:20.813Z,9.88
2018-04-12T05:06:49.144Z,9.78
2018-04-12T05:09:17.490Z,9.75
2018-04-12T05:11:45.822Z,9.78
2018-04-12T05:14:14.169Z,9.83
2018-04-12T05:16:42.501Z,9.84
2018-04-12T05:19:10.845Z,9.80
2018-04-12T05:21:39.167Z,9.71
2018-04-12T05:24:07.521Z,9.72
2018-04-12T05:26:35.849Z,9.70
2018-04-12T05:29:04.184Z,9.73
2018-04-12T05:31:32.504Z,9.70
2018-04-12T05:34:00.898Z,9.60
2018-04-12T05:36:29.212Z,9.54
2018-04-12T05:38:57.529Z,9.67
2018-04-12T05:41:25.889Z,9.68
2018-04-12T05:43:54.224Z,9.61
2018-04-12T05:46:22.613Z,9.59
2018-04-12T05:48:50.893Z,9.59
2018-04-12T05:51:19.244Z,9.63
2018-04-12T05:53:47.577Z,9.71
2018-04-12T05:56:15.922Z,9.83
2018-04-12T05:58:44.257Z,9.78
2018-04-12T06:01:12.600Z,9.70
2018-04-12T06:03:41.076Z,9.64
2018-04-12T06:06:09.444Z,9.60
2018-04-12T06:08:37.773Z,9.58
2018-04-12T06:11:06.120Z,9.57
2018-04-12T06:13:34.465Z,9.59
2018-04-12T06:16:03.111Z,9.62
2018-04-12T06:18:31.433Z,9.60
2018-04-12T06:20:59.776Z,9.61
2018-04-12T06:23:28.101Z,9.54
2018-04-12T06:25:56.461Z,9.56
2018-04-12T06:28:24.820Z,9.60
2018-04-12T06:30:53.205Z,9.58
2018-04-12T06:33:21.528Z,9.61
2018-04-12T06:35:49.903Z,9.63
2018-04-12T06:38:18.222Z,9.65
2018-04-12T06:40:46.569Z,9.65
2018-04-12T06:43:14.894Z,9.62
2018-04-12T06:45:43.232Z,9.54
2018-04-12T06:48:11.561Z,9.58
2018-04-12T06:50:39.911Z,9.60
2018-04-12T06:53:08.232Z,9.65
2018-04-12T06:55:36.580Z,9.64
2018-04-12T06:58:04.910Z,9.71
2018-04-12T07:00:33.247Z,9.83
2018-04-12T07:03:01.577Z,9.91
2018-04-12T07:05:29.921Z,9.94
2018-04-12T07:07:58.241Z,9.99
2018-04-12T07:10:26.602Z,10.05
2018-04-12T07:12:54.928Z,10.01
2018-04-12T07:15:23.286Z,10.03
2018-04-12T07:17:51.621Z,10.08
2018-04-12T07:20:19.976Z,10.07
2018-04-12T07:22:48.304Z,10.09
2018-04-12T07:25:16.660Z,10.10
2018-04-12T07:27:44.992Z,10.11
2018-04-12T07:30:13.349Z,10.17
2018-04-12T07:32:41.681Z,10.15
2018-04-12T07:35:10.033Z,10.13
2018-04-12T07:37:38.369Z,10.12
2018-04-12T07:40:06.721Z,10.10
2018-04-12T07:42:35.069Z,10.04
2018-04-12T07:45:03.402Z,10.03
2018-04-12T07:47:31.757Z,10.02
2018-04-12T07:50:00.084Z,10.05
2018-04-12T07:52:28.436Z,9.97
2018-04-12T07:54:56.764Z,10.01
2018-04-12T07:57:25.125Z,10.11
2018-04-12T07:59:53.460Z,10.10
2018-04-12T08:02:21.813Z,10.12
2018-04-12T08:04:50.149Z,10.15
2018-04-12T08:07:18.506Z,10.25
2018-04-12T08:09:46.836Z,10.26
2018-04-12T08:12:15.189Z,10.25
2018-04-12T08:14:43.520Z,10.25
2018-04-12T08:17:11.872Z,10.25
2018-04-12T08:19:40.205Z,10.26
2018-04-12T08:22:08.565Z,10.30
2018-04-12T08:24:36.901Z,10.31
2018-04-12T08:27:05.248Z,10.33
2018-04-12T08:29:33.580Z,10.40
2018-04-12T08:32:01.940Z,10.46
2018-04-12T08:34:30.297Z,10.50
2018-04-12T08:36:58.628Z,10.54
2018-04-12T08:39:26.965Z,10.58
2018-04-12T08:41:55.321Z,10.62
2018-04-12T08:44:23.648Z,10.71
2018-04-12T08:46:52.009Z,10.70
2018-04-12T08:49:20.344Z,10.71
2018-04-12T08:51:48.699Z,10.73
2018-04-12T08:54:17.033Z,10.72
2018-04-12T08:56:45.389Z,10.69
2018-04-12T08:59:13.716Z,10.70
2018-04-12T09:01:42.069Z,10.79
2018-04-12T09:04:10.410Z,10.89
2018-04-12T09:06:38.755Z,10.98
2018-04-12T09:09:07.083Z,11.03
2018-04-12T09:11:35.440Z,11.14
2018-04-12T09:14:03.768Z,11.15
2018-04-12T09:16:32.129Z,11.09
2018-04-12T09:19:00.457Z,11.12
2018-04-12T09:21:28.817Z,11.19
2018-04-12T09:23:57.152Z,11.27
2018-04-12T09:26:25.508Z,11.39
2018-04-12T09:28:53.841Z,11.38
2018-04-12T09:31:22.201Z,11.32
2018-04-12T09:33:50.534Z,11.37
2018-04-12T09:36:18.880Z,11.38
2018-04-12T09:38:47.209Z,11.44
2018-04-12T09:41:15.581Z,11.53
2018-04-12T09:43:43.905Z,11.56
2018-04-12T09:46:12.250Z,11.62
2018-04-12T09:48:41.180Z,11.70
2018-04-12T09:51:09.703Z,11.74
2018-04-12T09:53:38.108Z,11.82
2018-04-12T09:56:06.453Z,11.76
2018-04-12T09:58:34.815Z,11.76
2018-04-12T10:01:08.855Z,11.84
2018-04-12T10:03:37.213Z,11.76
2018-04-12T10:06:05.904Z,11.69
2018-04-12T10:08:34.260Z,11.64
2018-04-12T10:11:02.593Z,11.72
2018-04-12T10:13:30.957Z,11.84
2018-04-12T10:15:59.287Z,11.86
2018-04-12T10:18:27.730Z,11.90
2018-04-12T10:20:56.065Z,11.83
2018-04-12T10:23:24.434Z,11.77
2018-04-12T10:25:52.765Z,11.77
2018-04-12T10:28:21.120Z,11.85
2018-04-12T10:30:49.457Z,11.91
2018-04-12T10:33:17.813Z,11.92
2018-04-12T10:35:46.153Z,11.96
2018-04-12T10:38:14.514Z,11.98
2018-04-12T10:40:42.852Z,12.02
2018-04-12T10:43:11.205Z,12.05
2018-04-12T10:45:39.537Z,12.17
2018-04-12T10:48:07.884Z,12.25
2018-04-12T10:50:36.213Z,12.33
2018-04-12T10:53:04.556Z,12.27
2018-04-12T10:55:32.893Z,12.33
2018-04-12T10:58:01.245Z,12.34
2018-04-12T11:00:29.584Z,12.37
2018-04-12T11:02:57.981Z,12.45
2018-04-12T11:05:26.313Z,12.49
2018-04-12T11:07:54.672Z,12.51
2018-04-12T11:10:23.002Z,12.58
2018-04-12T11:12:51.356Z,12.60
2018-04-12T11:15:19.703Z,12.59
2018-04-12T11:17:48.102Z,12.66
2018-04-12T11:20:16.385Z,12.73
2018-04-12T11:22:44.736Z,12.91
2018-04-12T11:25:13.069Z,13.01
2018-04-12T11:27:41.436Z,13.04
2018-04-12T11:30:10.372Z,13.07
2018-04-12T11:32:38.762Z,13.08
2018-04-12T11:35:07.089Z,13.14
2018-04-12T11:37:35.452Z,13.17
2018-04-12T11:40:03.785Z,13.13
2018-04-12T11:42:32.145Z,13.19
2018-04-12T11:45:00.472Z,13.21
2018-04-12T11:47:28.829Z,13.17
2018-04-12T11:49:57.197Z,13.22
2018-04-12T11:52:25.945Z,13.30
2018-04-12T11:54:54.309Z,13.32
2018-04-12T11:57:22.626Z,13.40
2018-04-12T11:59:50.976Z,13.47
2018-04-12T12:02:19.419Z,13.56
2018-04-12T12:04:47.778Z,13.55
2018-04-12T12:07:16.112Z,13.69
2018-04-12T12:09:44.737Z,13.85
2018-04-12T12:12:13.225Z,14.04
2018-04-12T12:14:44.042Z,14.19
2018-04-12T12:17:12.370Z,14.32
2018-04-12T12:19:40.730Z,14.45
2018-04-12T12:22:09.073Z,14.56
2018-04-12T12:24:37.425Z,14.74
2018-04-12T12:27:05.761Z,14.89
2018-04-12T12:29:34.120Z,14.96
2018-04-12T12:32:02.444Z,15.09
2018-04-12T12:34:30.793Z,15.26
2018-04-12T12:36:59.120Z,15.51
2018-04-12T12:39:27.506Z,15.62
2018-04-12T12:41:55.988Z,15.67
2018-04-12T12:44:24.502Z,15.84
2018-04-12T12:46:52.832Z,15.88
2018-04-12T12:49:21.176Z,16.02
2018-04-12T12:51:49.500Z,16.05
2018-04-12T12:54:17.852Z,16.04
2018-04-12T12:56:46.180Z,16.15
2018-04-12T12:59:14.524Z,16.21
2018-04-12T13:01:42.855Z,16.32
2018-04-12T13:04:11.199Z,16.34
2018-04-12T13:06:39.524Z,16.44
2018-04-12T13:09:07.875Z,16.48
2018-04-12T13:11:36.196Z,16.61
2018-04-12T13:14:04.549Z,16.69
2018-04-12T13:16:33.800Z,16.76
2018-04-12T13:19:02.149Z,16.78
2018-04-12T13:21:30.484Z,16.87
2018-04-12T13:23:58.857Z,16.93
2018-04-12T13:26:27.190Z,16.98
2018-04-12T13:28:55.542Z,17.16
2018-04-12T13:31:23.863Z,17.38
2018-04-12T13:33:52.212Z,17.60
2018-04-12T13:36:20.737Z,17.62
2018-04-12T13:38:49.572Z,17.69
2018-04-12T13:41:17.903Z,17.76
2018-04-12T13:43:46.265Z,17.85
2018-04-12T13:46:14.591Z,17.99
2018-04-12T13:48:42.945Z,18.09
2018-04-12T13:51:11.272Z,18.17
2018-04-12T13:53:39.600Z,18.12
2018-04-12T13:56:07.958Z,18.17
2018-04-12T13:58:36.296Z,18.25
2018-04-12T14:01:04.648Z,18.27
2018-04-12T14:03:32.981Z,18.33
2018-04-12T14:06:01.952Z,18.43
2018-04-12T14:08:30.269Z,18.51
2018-04-12T14:10:58.664Z,18.57
2018-04-12T14:13:26.978Z,18.67
2018-04-12T14:15:55.354Z,18.69
2018-04-12T14:18:23.680Z,18.73
2018-04-12T14:20:52.032Z,18.78
2018-04-12T14:23:20.361Z,18.87
2018-04-12T14:25:48.717Z,18.83
2018-04-12T14:28:17.049Z,18.90
2018-04-12T14:30:45.405Z,19.06
2018-04-12T14:33:13.736Z,19.15
2018-04-12T14:35:42.084Z,19.18
2018-04-12T14:38:10.513Z,19.26
2018-04-12T14:40:38.970Z,19.21
2018-04-12T14:43:07.317Z,19.23
2018-04-12T14:45:35.789Z,19.27
2018-04-12T14:48:04.135Z,19.27
2018-04-12T14:50:32.525Z,19.40
2018-04-12T14:53:00.860Z,19.44
2018-04-12T14:55:29.217Z,19.38
2018-04-12T14:57:57.549Z,19.35
2018-04-12T15:00:25.913Z,19.31
2018-04-12T15:02:54.253Z,19.38
2018-04-12T15:05:22.600Z,19.45
2018-04-12T15:07:50.933Z,19.45
2018-04-12T15:10:19.287Z,19.51
2018-04-12T15:12:47.812Z,19.66
2018-04-12T15:15:16.156Z,19.76
2018-04-12T15:17:44.485Z,19.87
2018-04-12T15:20:12.834Z,19.91
2018-04-12T15:22:41.172Z,19.95
2018-04-12T15:25:09.593Z,20.00
2018-04-12T15:27:37.921Z,20.01
2018-04-12T15:30:06.293Z,19.93
2018-04-12T15:32:34.632Z,19.83
2018-04-12T15:35:02.992Z,19.83
2018-04-12T15:37:31.322Z,19.82
2018-04-12T15:39:59.678Z,19.88
2018-04-12T15:42:28.020Z,19.92
2018-04-12T15:44:56.368Z,19.95
2018-04-12T15:47:24.703Z,20.00
2018-04-12T15:49:53.057Z,20.04
2018-04-12T15:52:21.383Z,20.11
2018-04-12T15:54:49.712Z,20.14
2018-04-12T15:57:18.064Z,20.08
2018-04-12T15:59:46.398Z,20.05
2018-04-12T16:02:14.753Z,20.00
2018-04-12T16:04:43.081Z,20.03
2018-04-12T16:07:11.434Z,20.04
2018-04-12T16:09:39.760Z,20.07
2018-04-12T16:12:08.113Z,20.10
2018-04-12T16:14:36.449Z,20.08
2018-04-12T16:17:04.808Z,20.07
2018-04-12T16:19:33.140Z,20.09
2018-04-12T16:22:01.493Z,20.13
2018-04-12T16:24:29.820Z,20.21
2018-04-12T16:26:58.233Z,20.28
2018-04-12T16:29:26.576Z,20.23
2018-04-12T16:31:54.936Z,20.25
2018-04-12T16:34:23.260Z,20.22
2018-04-12T16:36:51.608Z,20.23
2018-04-12T16:39:20.138Z,20.20
2018-04-12T16:41:48.478Z,20.14
2018-04-12T16:44:16.809Z,20.11
2018-04-12T16:46:45.649Z,20.09
2018-04-12T16:49:13.981Z,20.11
2018-04-12T16:51:42.330Z,20.07
2018-04-12T16:54:10.661Z,20.09
2018-04-12T16:56:40.013Z,20.11
2018-04-12T16:59:08.344Z,20.14
2018-04-12T17:01:36.689Z,20.13
2018-04-12T17:04:05.017Z,20.18
2018-04-12T17:06:33.370Z,20.15
2018-04-12T17:09:01.697Z,20.11
2018-04-12T17:11:30.282Z,20.09
2018-04-12T17:13:58.625Z,20.06
2018-04-12T17:16:27.022Z,20.01
2018-04-12T17:18:55.385Z,19.97
2018-04-12T17:21:23.750Z,19.94
2018-04-12T17:23:52.087Z,19.92
2018-04-12T17:26:20.437Z,19.89
2018-04-12T17:28:48.780Z,19.86
2018-04-12T17:31:17.151Z,19.80
2018-04-12T17:33:45.471Z,19.76
2018-04-12T17:36:13.821Z,19.68
2018-04-12T17:38:42.163Z,19.62
2018-04-12T17:41:10.509Z,19.61
2018-04-12T17:43:38.844Z,19.62
2018-04-12T17:46:09.153Z,19.60
2018-04-12T17:48:37.482Z,19.59
2018-04-12T17:51:05.842Z,19.56
2018-04-12T17:53:34.168Z,19.53
2018-04-12T17:56:02.533Z,19.50
2018-04-12T17:58:30.865Z,19.48
2018-04-12T18:00:59.203Z,19.43
2018-04-12T18:03:28.335Z,19.45
2018-04-12T18:05:56.726Z,19.42
2018-04-12T18:08:25.025Z,19.38
2018-04-12T18:10:53.371Z,19.34
2018-04-12T18:13:21.720Z,19.31
2018-04-12T18:15:50.061Z,19.27
2018-04-12T18:18:18.416Z,19.22
2018-04-12T18:20:46.744Z,19.18
2018-04-12T18:23:16.156Z,19.18
2018-04-12T18:25:44.488Z,19.13
2018-04-12T18:28:12.854Z,19.07
2018-04-12T18:30:41.177Z,19.06
2018-04-12T18:33:09.537Z,19.02
2018-04-12T18:35:37.864Z,18.97
2018-04-12T18:38:06.218Z,18.95
2018-04-12T18:40:34.549Z,18.87
2018-04-12T18:43:03.705Z,18.86
2018-04-12T18:45:32.032Z,18.84
2018-04-12T18:48:00.380Z,18.78
2018-04-12T18:50:28.714Z,18.72
2018-04-12T18:52:57.061Z,18.70
2018-04-12T18:55:25.388Z,18.69
2018-04-12T18:57:53.744Z,18.70
2018-04-12T19:00:22.081Z,18.66
2018-04-12T19:02:51.336Z,18.66
2018-04-12T19:05:19.677Z,18.69
2018-04-12T19:07:48.029Z,18.69
2018-04-12T19:10:16.360Z,18.70
2018-04-12T19:12:44.712Z,18.64
2018-04-12T19:15:13.044Z,18.61
2018-04-12T19:17:41.392Z,18.63
2018-04-12T19:20:09.722Z,18.63
2018-04-12T19:22:39.008Z,18.64
2018-04-12T19:25:07.353Z,18.66
2018-04-12T19:27:35.768Z,18.65
2018-04-12T19:30:04.037Z,18.66
2018-04-12T19:32:33.158Z,18.63
2018-04-12T19:35:01.513Z,18.60
2018-04-12T19:37:29.860Z,18.59
2018-04-12T19:39:58.196Z,18.54
2018-04-12T19:42:26.595Z,18.53
2018-04-12T19:44:54.877Z,18.50
2018-04-12T19:47:23.260Z,18.48
2018-04-12T19:49:52.720Z,18.43
2018-04-12T19:52:21.068Z,18.40
2018-04-12T19:54:49.416Z,18.32
2018-04-12T19:57:17.785Z,18.28
2018-04-12T19:59:46.116Z,18.23
2018-04-12T20:02:15.176Z,18.23
2018-04-12T20:04:43.508Z,18.19
2018-04-12T20:07:11.835Z,18.17
2018-04-12T20:09:40.189Z,18.18
2018-04-12T20:12:08.516Z,18.10
2018-04-12T20:14:36.866Z,18.00
2018-04-12T20:17:05.364Z,17.94
2018-04-12T20:19:33.755Z,17.93
2018-04-12T20:22:03.125Z,17.99
2018-04-12T20:24:32.845Z,17.96
2018-04-12T20:27:01.620Z,17.91
2018-04-12T20:29:29.978Z,17.88
2018-04-12T20:31:58.300Z,17.84
2018-04-12T20:34:26.652Z,17.81
2018-04-12T20:36:54.981Z,17.79
2018-04-12T20:39:23.330Z,17.78
2018-04-12T20:41:51.665Z,17.77
2018-04-12T20:44:20.020Z,17.74
2018-04-12T20:46:48.345Z,17.77
2018-04-12T20:49:16.698Z,17.77
2018-04-12T20:51:45.033Z,17.73
2018-04-12T20:54:13.376Z,17.73
2018-04-12T20:56:41.768Z,17.70
2018-04-12T20:59:10.117Z,17.73
2018-04-12T21:01:38.444Z,17.68
2018-04-12T21:04:06.801Z,17.67
2018-04-12T21:06:35.128Z,17.63
2018-04-12T21:09:03.483Z,17.61
2018-04-12T21:11:31.821Z,17.57
2018-04-12T21:14:00.362Z,17.52
2018-04-12T21:16:29.671Z,17.48
2018-04-12T21:18:58.023Z,17.41
2018-04-12T21:21:26.352Z,17.40
2018-04-12T21:23:54.696Z,17.32
2018-04-12T21:26:23.072Z,17.32
2018-04-12T21:28:51.381Z,17.28
2018-04-12T21:31:19.713Z,17.23
2018-04-12T21:33:48.065Z,17.20
2018-04-12T21:36:16.397Z,17.16
2018-04-12T21:38:44.752Z,17.17
2018-04-12T21:41:13.724Z,17.22
2018-04-12T21:43:42.077Z,17.24
2018-04-12T21:46:10.408Z,17.26
2018-04-12T21:48:38.769Z,17.28
2018-04-12T21:51:07.093Z,17.24
2018-04-12T21:53:35.436Z,17.22
2018-04-12T21:56:03.764Z,17.18
2018-04-12T21:58:32.125Z,17.19
2018-04-12T22:01:00.449Z,17.20
2018-04-12T22:03:28.796Z,17.16
2018-04-12T22:05:57.130Z,17.18
2018-04-12T22:08:25.502Z,17.19
2018-04-12T22:10:53.823Z,17.17
2018-04-12T22:13:22.161Z,17.16
2018-04-12T22:15:50.489Z,17.13
2018-04-12T22:18:18.809Z,17.15
2018-04-12T22:20:47.157Z,17.03
2018-04-12T22:23:15.488Z,17.00
2018-04-12T22:25:43.833Z,16.97
2018-04-12T22:28:12.152Z,16.92
2018-04-12T22:30:40.497Z,16.85
2018-04-12T22:33:08.820Z,16.79
2018-04-12T22:35:37.160Z,16.73
2018-04-12T22:38:05.486Z,16.72
2018-04-12T22:40:33.827Z,16.79
2018-04-12T22:43:02.157Z,16.81
2018-04-12T22:45:30.500Z,16.80
2018-04-12T22:47:58.824Z,16.78
2018-04-12T22:50:27.174Z,16.83
2018-04-12T22:52:56.336Z,16.80
2018-04-12T22:55:24.684Z,16.76
2018-04-12T22:57:53.005Z,16.65
2018-04-12T23:00:21.348Z,16.66
2018-04-12T23:02:49.672Z,16.75
2018-04-12T23:05:18.017Z,16.84
2018-04-12T23:07:46.339Z,16.90
2018-04-12T23:10:14.685Z,16.93
2018-04-12T23:12:43.009Z,16.91
2018-04-12T23:15:11.352Z,16.94
2018-04-12T23:17:39.680Z,16.99
2018-04-12T23:20:08.019Z,16.93
2018-04-12T23:22:36.385Z,16.92
2018-04-12T23:25:04.717Z,16.92
2018-04-12T23:27:33.046Z,16.85
2018-04-12T23:30:01.381Z,16.81
2018-04-12T23:32:29.704Z,16.78
2018-04-12T23:34:58.048Z,16.80
2018-04-12T23:37:26.556Z,16.79
2018-04-12T23:39:54.904Z,16.74
2018-04-12T23:42:23.220Z,16.76
2018-04-12T23:44:51.569Z,16.78
2018-04-12T23:47:19.905Z,16.71
2018-04-12T23:49:48.256Z,16.50
2018-04-12T23:52:16.576Z,16.41
2018-04-12T23:54:44.929Z,16.38
2018-04-12T23:57:13.256Z,16.47
2018-04-12T23:59:41.600Z,16.47
